Time;durP1;ratioP1;P1;durP2;ratioP2;P2;SDS_P1;SDS_P2;PMS_P1;PMS_P2;Temp;Humidity;BMP_temperature;BMP_pressure;BME280_temperature;BME280_humidity;BME280_pressure;Samples;Min_cycle;Max_cycle;Signal;HPM_P1;HPM_P2
2021/01/29 00:00:35;;;;;;;3.25;0.25;;;;;;;8.88;85.46;97620.00;4990650;28;20041;-68
2021/01/29 00:03:05;;;;;;;0.60;0.20;;;;;;;8.88;85.50;97611.91;4997187;28;20042;-69
2021/01/29 00:05:52;;;;;;;0.85;0.32;;;;;;;8.88;85.68;97613.78;5001593;28;20031;-69
2021/01/29 00:08:18;;;;;;;2.75;0.40;;;;;;;8.85;85.19;97596.16;5005860;28;20388;-68
2021/01/29 00:10:43;;;;;;;1.95;0.25;;;;;;;9.00;84.84;97602.03;5010934;28;20030;-69
2021/01/29 00:13:10;;;;;;;0.93;0.10;;;;;;;8.99;84.84;97592.31;4994884;28;20041;-69
2021/01/29 00:15:36;;;;;;;1.58;0.30;;;;;;;8.92;84.68;97572.66;4995817;28;20606;-68
2021/01/29 00:18:02;;;;;;;1.30;0.32;;;;;;;9.13;84.50;97589.47;4998238;28;20049;-69
2021/01/29 00:20:29;;;;;;;0.50;0.20;;;;;;;9.03;84.42;97579.19;5001464;28;20029;-69
2021/01/29 00:22:54;;;;;;;0.45;0.30;;;;;;;8.94;84.54;97573.25;5000171;28;20491;-69
2021/01/29 00:25:26;;;;;;;1.13;0.30;;;;;;;8.99;84.70;97578.81;5006193;28;20022;-69
2021/01/29 00:27:51;;;;;;;2.70;0.40;;;;;;;8.94;84.95;97569.75;5015103;28;20030;-69
2021/01/29 00:30:19;;;;;;;3.83;0.40;;;;;;;8.83;85.06;97543.47;5001487;28;20037;-69
2021/01/29 00:32:45;;;;;;;0.52;0.38;;;;;;;8.95;84.95;97556.00;4996541;28;20369;-69
2021/01/29 00:35:12;;;;;;;0.75;0.32;;;;;;;9.01;84.52;97546.19;4995522;28;20034;-69
2021/01/29 00:37:37;;;;;;;1.70;0.52;;;;;;;8.98;84.86;97544.78;4975693;28;20039;-69
2021/01/29 00:40:04;;;;;;;1.00;0.40;;;;;;;8.97;84.89;97542.31;4992038;28;20026;-69
2021/01/29 00:42:29;;;;;;;1.30;0.70;;;;;;;8.92;84.95;97542.97;4995346;28;20462;-70
2021/01/29 00:44:54;;;;;;;2.10;0.50;;;;;;;8.84;85.04;97526.28;4993871;28;20208;-69
2021/01/29 00:47:20;;;;;;;2.13;0.35;;;;;;;8.81;85.12;97515.94;4995172;28;20110;-70
2021/01/29 00:49:45;;;;;;;1.13;0.40;;;;;;;8.84;85.07;97527.09;4994585;28;20049;-69
2021/01/29 00:52:10;;;;;;;1.10;0.40;;;;;;;8.88;85.77;97532.84;4994927;28;20030;-69
2021/01/29 00:54:35;;;;;;;0.80;0.30;;;;;;;8.86;85.13;97529.59;4994796;28;20037;-69
2021/01/29 00:57:01;;;;;;;2.92;0.63;;;;;;;8.82;85.34;97518.41;4994612;28;20026;-69
2021/01/29 00:59:26;;;;;;;5.47;0.47;;;;;;;8.85;85.27;97515.25;4991170;28;20046;-69
2021/01/29 01:01:51;;;;;;;2.15;0.45;;;;;;;8.85;85.17;97507.16;4994203;28;20037;-69
2021/01/29 01:04:17;;;;;;;2.88;0.55;;;;;;;8.82;85.11;97496.81;4992539;28;20023;-69
2021/01/29 01:06:42;;;;;;;4.90;0.50;;;;;;;8.90;85.18;97503.78;4983809;28;20018;-69
2021/01/29 01:09:08;;;;;;;0.93;0.35;;;;;;;8.91;85.07;97500.88;4984184;28;20038;-69
2021/01/29 01:11:33;;;;;;;1.02;0.30;;;;;;;8.90;84.93;97499.22;5004853;28;20045;-69
2021/01/29 01:14:00;;;;;;;0.82;0.50;;;;;;;8.84;85.16;97493.91;4994705;28;20042;-69
2021/01/29 01:16:25;;;;;;;0.40;0.40;;;;;;;8.85;84.97;97484.75;4994490;28;20022;-69
2021/01/29 01:18:51;;;;;;;3.60;0.38;;;;;;;8.92;84.89;97497.13;4995208;28;20041;-69
2021/01/29 01:21:16;;;;;;;2.83;0.40;;;;;;;8.92;84.82;97489.03;4993350;28;20049;-69
2021/01/29 01:23:41;;;;;;;3.20;0.55;;;;;;;8.84;85.39;97480.44;4995036;28;20040;-69
2021/01/29 01:26:06;;;;;;;1.83;0.50;;;;;;;8.68;85.75;97460.28;4995732;28;20022;-69
2021/01/29 01:28:32;;;;;;;1.10;0.60;;;;;;;8.61;86.65;97483.78;4997856;28;20503;-69
2021/01/29 01:30:57;;;;;;;1.20;0.45;;;;;;;8.50;87.02;97478.06;4988474;28;20022;-69
2021/01/29 01:33:22;;;;;;;3.17;0.77;;;;;;;8.39;87.40;97468.03;4994697;28;20507;-69
2021/01/29 01:35:48;;;;;;;0.73;0.28;;;;;;;8.35;87.38;97464.91;4996343;28;20113;-69
2021/01/29 01:38:13;;;;;;;2.45;0.65;;;;;;;8.22;88.20;97461.53;5013596;28;20365;-69
2021/01/29 01:40:41;;;;;;;2.70;0.55;;;;;;;8.17;88.29;97455.97;5008627;28;20033;-69
2021/01/29 01:43:07;;;;;;;2.15;0.50;;;;;;;8.09;88.63;97449.81;4994349;28;20026;-69
2021/01/29 01:45:32;;;;;;;1.13;0.40;;;;;;;8.06;88.97;97444.88;4994117;28;20523;-69
2021/01/29 01:48:17;;;;;;;0.98;0.50;;;;;;;8.00;89.40;97439.56;4993897;28;20487;-69
2021/01/29 01:50:47;;;;;;;1.05;0.43;;;;;;;7.95;89.57;97429.44;4989657;28;20049;-69
2021/01/29 01:53:36;;;;;;;1.45;0.60;;;;;;;7.86;90.23;97428.09;4992885;28;20396;-69
2021/01/29 01:56:01;;;;;;;;;;;;;;;7.86;90.32;97430.78;5005374;28;20065;-68
2021/01/29 01:58:27;;;;;;;2.28;0.68;;;;;;;7.82;90.61;97427.66;5008828;28;19955;-68
2021/01/29 02:00:52;;;;;;;2.47;0.75;;;;;;;7.79;90.95;97416.53;4993160;28;20285;-68
2021/01/29 02:03:23;;;;;;;1.48;0.70;;;;;;;7.73;91.28;97403.94;4994292;28;20030;-67
2021/01/29 02:05:49;;;;;;;2.40;0.68;;;;;;;7.70;91.52;97386.34;4993674;28;20022;-69
2021/01/29 02:08:17;;;;;;;1.80;0.68;;;;;;;7.64;91.76;97393.44;5011986;28;20396;-68
2021/01/29 02:10:43;;;;;;;1.38;0.90;;;;;;;7.61;92.26;97391.19;5002189;28;20117;-69
2021/01/29 02:13:09;;;;;;;2.42;0.90;;;;;;;7.60;92.52;97396.81;4997262;28;20494;-69
2021/01/29 02:15:38;;;;;;;3.55;1.08;;;;;;;7.61;92.72;97388.50;5012249;28;20030;-69
2021/01/29 02:18:28;;;;;;;2.03;0.80;;;;;;;7.58;93.00;97388.94;4997496;28;20044;-68
2021/01/29 02:21:07;;;;;;;3.67;0.80;;;;;;;7.58;93.16;97380.88;4993053;28;20026;-68
2021/01/29 02:24:18;;;;;;;2.65;1.33;;;;;;;7.61;93.30;97371.53;5000925;28;20026;-69
2021/01/29 02:27:20;;;;;;;1.80;0.85;;;;;;;7.54;93.62;97371.56;4980198;28;20133;-71
2021/01/29 02:29:54;;;;;;;2.60;0.90;;;;;;;7.51;93.97;97363.94;4992568;28;20076;-68
2021/01/29 02:32:57;;;;;;;2.33;1.00;;;;;;;7.50;94.41;97354.22;4992597;28;20037;-68
2021/01/29 02:35:44;;;;;;;1.35;0.82;;;;;;;7.49;94.44;97357.13;4973708;28;20042;-71
2021/01/29 02:38:31;;;;;;;2.80;1.02;;;;;;;7.47;94.69;97352.81;5024754;23;20413;-67
2021/01/29 02:41:15;;;;;;;3.17;0.80;;;;;;;7.46;94.95;97347.63;4990519;28;20467;-67
2021/01/29 02:43:48;;;;;;;1.20;0.70;;;;;;;7.50;94.96;97338.09;4979673;28;20036;-68
2021/01/29 02:46:22;;;;;;;2.15;0.88;;;;;;;7.56;94.97;97321.03;4976011;28;20449;-67
2021/01/29 02:48:50;;;;;;;3.15;1.40;;;;;;;7.58;94.66;97310.88;4973547;28;20097;-67
2021/01/29 02:51:26;;;;;;;2.28;1.10;;;;;;;7.58;94.62;97313.59;4980087;28;20119;-67
2021/01/29 02:53:55;;;;;;;1.90;0.80;;;;;;;7.55;94.88;97307.81;4989851;28;20480;-67
2021/01/29 02:56:54;;;;;;;3.55;1.27;;;;;;;7.59;94.93;97291.00;4980251;28;20424;-67
2021/01/29 02:59:55;;;;;;;2.67;1.58;;;;;;;7.65;94.90;97289.28;4977032;28;20031;-67
2021/01/29 03:02:28;;;;;;;1.23;0.98;;;;;;;7.64;94.63;97282.25;4986722;28;20045;-67
2021/01/29 03:05:07;;;;;;;3.08;1.27;;;;;;;7.57;94.59;97268.88;4974562;28;20031;-67
2021/01/29 03:07:41;;;;;;;1.48;1.00;;;;;;;7.64;94.63;97277.69;4974219;28;20061;-67
2021/01/29 03:10:14;;;;;;;2.38;1.02;;;;;;;7.62;94.64;97260.13;4985041;28;20039;-67
2021/01/29 03:12:47;;;;;;;3.28;1.15;;;;;;;7.60;94.51;97260.34;4985581;28;20034;-67
2021/01/29 03:15:21;;;;;;;1.80;1.08;;;;;;;7.66;94.36;97258.66;4974069;28;20023;-67
2021/01/29 03:17:55;;;;;;;2.40;0.90;;;;;;;7.60;94.18;97246.09;4973299;28;20073;-67
2021/01/29 03:20:31;;;;;;;1.83;1.10;;;;;;;7.75;93.90;97265.38;4973038;28;20061;-67
2021/01/29 03:23:08;;;;;;;1.58;1.00;;;;;;;7.73;93.90;97272.03;4984278;28;20496;-67
2021/01/29 03:25:38;;;;;;;2.15;1.10;;;;;;;7.72;93.86;97257.75;4980437;28;20038;-68
2021/01/29 03:28:11;;;;;;;2.20;1.10;;;;;;;7.75;93.69;97253.78;4981492;28;21956;-67
2021/01/29 03:30:42;;;;;;;1.92;0.90;;;;;;;7.71;93.45;97248.03;4992130;28;20356;-66
2021/01/29 03:33:11;;;;;;;1.40;0.90;;;;;;;7.66;93.74;97235.22;4980933;28;20058;-66
2021/01/29 03:35:40;;;;;;;1.20;0.95;;;;;;;7.72;93.81;97238.91;4973165;28;20119;-67
2021/01/29 03:38:11;;;;;;;;;;;;;;;7.69;93.58;97240.16;4988890;28;20505;-66
2021/01/29 03:40:39;;;;;;;0.80;0.70;;;;;;;7.76;93.37;97233.91;4980048;28;19914;-66
2021/01/29 03:43:29;;;;;;;3.10;0.77;;;;;;;7.77;93.02;97220.22;4973754;28;20066;-66
2021/01/29 03:46:10;;;;;;;1.17;0.80;;;;;;;7.77;93.03;97224.78;4985366;28;20165;-66
2021/01/29 03:48:55;;;;;;;1.48;0.90;;;;;;;7.77;93.04;97222.09;4993620;28;20026;-66
2021/01/29 03:51:50;;;;;;;0.95;0.60;;;;;;;7.77;92.79;97219.38;4984549;28;20496;-66
2021/01/29 03:54:34;;;;;;;1.60;1.00;;;;;;;7.78;92.98;97207.56;4969697;28;20049;-66
2021/01/29 03:57:11;;;;;;;4.07;1.40;;;;;;;7.78;92.78;97204.88;4984710;28;20498;-66
2021/01/29 03:59:59;;;;;;;3.65;1.60;;;;;;;7.78;92.96;97197.66;4980342;28;20043;-66
2021/01/29 04:02:37;;;;;;;1.42;0.70;;;;;;;7.70;92.47;97171.00;4989838;28;20030;-67
2021/01/29 04:05:16;;;;;;;4.53;0.70;;;;;;;7.76;92.47;97191.66;4986103;28;20038;-67
2021/01/29 04:07:50;;;;;;;0.95;0.43;;;;;;;7.84;92.11;97185.16;4988468;28;20451;-67
2021/01/29 04:10:20;;;;;;;1.02;0.30;;;;;;;7.81;91.84;97172.13;4994002;28;20030;-67
2021/01/29 04:12:54;;;;;;;;;;;;;;;7.87;91.52;97180.13;4985036;28;20026;-67
2021/01/29 04:15:29;;;;;;;1.23;0.30;;;;;;;7.86;91.75;97185.75;4979379;28;20319;-67
2021/01/29 04:18:03;;;;;;;0.73;0.50;;;;;;;7.81;91.92;97172.97;4979729;28;20400;-68
2021/01/29 04:20:39;;;;;;;0.73;0.30;;;;;;;7.77;91.88;97166.38;4988937;28;20436;-67
2021/01/29 04:23:08;;;;;;;0.82;0.40;;;;;;;7.77;92.26;97155.59;4986468;28;20554;-67
2021/01/29 04:25:41;;;;;;;0.75;0.50;;;;;;;7.77;92.34;97144.81;4998389;28;20041;-67
2021/01/29 04:28:14;;;;;;;0.73;0.30;;;;;;;7.79;92.20;97142.75;4998140;28;20062;-67
2021/01/29 04:30:44;;;;;;;1.40;0.55;;;;;;;7.80;92.42;97138.16;4981550;28;20093;-67
2021/01/29 04:33:17;;;;;;;3.17;0.30;;;;;;;7.77;92.27;97136.75;4997719;28;20505;-67
2021/01/29 04:35:43;;;;;;;1.48;0.40;;;;;;;7.77;92.28;97130.56;4979810;28;20030;-68
2021/01/29 04:38:24;;;;;;;0.55;0.25;;;;;;;7.61;92.41;97102.38;4993762;28;21034;-67
2021/01/29 04:41:09;;;;;;;2.60;0.73;;;;;;;7.74;92.73;97104.09;4982738;28;20041;-67
2021/01/29 04:43:56;;;;;;;1.08;0.50;;;;;;;7.73;92.76;97100.59;4984343;28;20605;-67
2021/01/29 04:46:31;;;;;;;0.90;0.40;;;;;;;7.82;92.23;97082.22;4993047;28;20476;-67
2021/01/29 04:49:28;;;;;;;0.45;0.20;;;;;;;7.77;92.60;97084.78;4988130;28;20073;-67
2021/01/29 04:52:21;;;;;;;1.58;0.50;;;;;;;7.83;92.02;97078.47;4980910;28;20121;-67
2021/01/29 04:55:28;;;;;;;1.33;0.43;;;;;;;7.80;91.72;97078.94;4996191;28;20026;-67
2021/01/29 04:58:14;;;;;;;1.13;0.30;;;;;;;7.82;91.40;97061.50;4983342;28;20034;-67
2021/01/29 05:01:02;;;;;;;0.25;0.13;;;;;;;7.86;91.20;97056.50;4992939;28;20392;-67
2021/01/29 05:03:45;;;;;;;1.40;0.28;;;;;;;7.90;90.74;97046.91;4983205;28;20054;-67
2021/01/29 05:06:32;;;;;;;2.78;0.32;;;;;;;7.81;91.38;97043.72;4980771;28;20056;-67
2021/01/29 05:09:36;;;;;;;2.15;0.50;;;;;;;7.77;92.03;97033.63;4994541;28;20116;-68
2021/01/29 05:12:31;;;;;;;1.77;0.40;;;;;;;7.81;91.16;97035.66;4987921;28;20057;-67
2021/01/29 05:15:07;;;;;;;2.67;0.73;;;;;;;7.94;90.19;97023.88;4984479;28;20058;-67
2021/01/29 05:18:00;;;;;;;9.68;2.35;;;;;;;7.95;90.10;97025.50;4980985;28;20038;-67
2021/01/29 05:21:03;;;;;;;13.70;4.40;;;;;;;7.98;89.85;97005.38;4975545;28;20115;-67
2021/01/29 05:23:52;;;;;;;2.28;0.70;;;;;;;8.02;89.24;97009.25;4992954;28;20369;-67
2021/01/29 05:26:17;;;;;;;;;;;;;;;7.97;89.84;97003.75;4978198;28;20396;-66
2021/01/29 05:29:20;;;;;;;3.27;1.03;;;;;;;7.92;90.38;96995.53;4976121;28;19917;-67
2021/01/29 05:31:51;;;;;;;3.17;0.52;;;;;;;7.90;90.13;96995.75;4989042;28;20273;-67
2021/01/29 05:34:41;;;;;;;1.60;0.38;;;;;;;7.91;90.27;96989.31;4989515;28;20030;-67
2021/01/29 05:37:18;;;;;;;;;;;;;;;7.86;90.42;96999.97;4975135;28;20039;-66
2021/01/29 05:40:02;;;;;;;1.45;0.28;;;;;;;7.84;90.56;96980.53;4977348;28;19925;-66
2021/01/29 05:42:39;;;;;;;0.98;0.35;;;;;;;7.79;90.93;96985.78;4982964;28;20027;-67
2021/01/29 05:45:25;;;;;;;1.10;0.30;;;;;;;7.74;91.49;96982.97;4980678;28;20085;-67
2021/01/29 05:48:05;;;;;;;0.60;0.30;;;;;;;7.59;91.94;96965.34;4987776;28;20109;-67
2021/01/29 05:50:44;;;;;;;2.50;0.28;;;;;;;7.62;92.19;96972.13;4978647;28;20033;-67
2021/01/29 05:53:33;;;;;;;2.10;0.38;;;;;;;7.64;92.60;96962.78;4987938;28;20026;-66
2021/01/29 05:56:20;;;;;;;0.50;0.40;;;;;;;7.62;93.23;96954.16;4983568;28;20575;-66
2021/01/29 05:59:00;;;;;;;0.65;0.28;;;;;;;7.57;93.50;96945.94;4989897;28;20285;-78
2021/01/29 06:01:44;;;;;;;0.73;0.43;;;;;;;7.60;93.44;96941.97;4978885;28;20023;-78
2021/01/29 06:04:12;;;;;;;0.50;0.30;;;;;;;7.57;93.64;96967.47;4988747;28;20030;-78
2021/01/29 06:06:44;;;;;;;2.38;0.50;;;;;;;7.54;93.91;96965.22;4993066;28;20028;-76
2021/01/29 06:09:35;;;;;;;1.70;0.52;;;;;;;7.55;94.05;96974.94;4992556;28;20034;-76
2021/01/29 06:12:00;;;;;;;0.73;0.52;;;;;;;7.59;94.14;96975.28;4978708;28;20050;-75
2021/01/29 06:14:43;;;;;;;3.08;1.10;;;;;;;7.57;94.00;96964.78;4988978;28;20041;-75
2021/01/29 06:17:49;;;;;;;1.75;1.30;;;;;;;7.56;94.19;96963.13;4992444;28;20022;-74
2021/01/29 06:21:05;;;;;;;1.77;1.00;;;;;;;7.52;94.30;96980.78;5000513;28;20577;-76
2021/01/29 06:23:49;;;;;;;1.45;1.00;;;;;;;7.46;94.34;96971.72;4972119;28;20113;-76
2021/01/29 06:26:42;;;;;;;3.15;2.20;;;;;;;7.52;94.66;96994.25;4996804;28;20058;-76
2021/01/29 06:29:41;;;;;;;3.38;1.60;;;;;;;7.56;94.56;96992.72;4983899;28;20480;-76
2021/01/29 06:32:18;;;;;;;3.75;1.05;;;;;;;7.52;94.56;96999.63;4989418;28;20022;-75
2021/01/29 06:35:21;;;;;;;3.20;1.20;;;;;;;7.51;94.64;97011.41;4992399;28;20640;-77
2021/01/29 06:38:16;;;;;;;2.08;0.70;;;;;;;7.55;94.62;97009.94;4975768;28;20035;-78
2021/01/29 06:40:57;;;;;;;2.85;0.60;;;;;;;7.60;94.30;97003.88;4991431;28;20030;-77
2021/01/29 06:43:41;;;;;;;3.20;0.90;;;;;;;7.67;93.73;97002.69;4982429;28;20411;-76
2021/01/29 06:46:09;;;;;;;1.85;0.50;;;;;;;7.77;93.17;97009.41;4988801;28;20029;-75
2021/01/29 06:48:52;;;;;;;0.70;0.22;;;;;;;7.79;93.28;97012.69;4978600;28;20049;-78
2021/01/29 06:51:45;;;;;;;1.17;0.47;;;;;;;7.82;92.78;97010.38;4991140;28;20501;-77
2021/01/29 06:54:25;;;;;;;2.00;0.40;;;;;;;7.97;91.33;97012.63;4990854;28;20033;-71
2021/01/29 06:57:26;;;;;;;3.28;0.40;;;;;;;8.02;91.41;97006.56;4985710;28;20030;-68
2021/01/29 07:00:06;;;;;;;0.45;0.30;;;;;;;8.01;91.23;97011.09;4978258;28;20050;-68
2021/01/29 07:02:50;;;;;;;0.47;0.20;;;;;;;8.22;89.43;97007.03;4978354;28;20137;-69
2021/01/29 07:05:44;;;;;;;0.65;0.20;;;;;;;8.27;88.03;96995.56;4985650;28;20026;-74
2021/01/29 07:08:23;;;;;;;0.13;0.00;;;;;;;8.56;85.95;97010.84;4992780;28;20054;-76
2021/01/29 07:10:51;;;;;;;2.83;0.40;;;;;;;8.52;86.87;97016.94;4990629;28;20026;-68
2021/01/29 07:13:29;;;;;;;0.55;0.22;;;;;;;8.44;86.63;97004.66;4984972;28;20121;-78
2021/01/29 07:16:18;;;;;;;0.57;0.20;;;;;;;8.58;85.35;97021.41;4994694;28;20022;-76
2021/01/29 07:19:05;;;;;;;0.20;0.10;;;;;;;8.51;86.19;97028.78;4985007;28;20125;-71
2021/01/29 07:21:45;;;;;;;1.02;0.10;;;;;;;8.41;86.18;97015.91;4973577;28;20031;-79
2021/01/29 07:24:30;;;;;;;;;;;;;;;8.49;85.51;97039.81;5009289;28;20030;-77
2021/01/29 07:27:08;;;;;;;0.10;0.10;;;;;;;8.39;85.93;97044.09;4991069;28;20445;-79
2021/01/29 07:29:58;;;;;;;0.52;0.10;;;;;;;8.45;85.64;97032.41;5013748;28;20030;-82
2021/01/29 07:32:55;;;;;;;0.10;0.08;;;;;;;8.41;85.85;97032.06;4995770;28;20022;-70
2021/01/29 07:35:33;;;;;;;0.55;0.10;;;;;;;8.51;84.14;97026.06;4974170;28;20043;-70
2021/01/29 07:38:17;;;;;;;0.50;0.10;;;;;;;8.54;84.54;97036.38;4977015;28;20038;-70
2021/01/29 07:41:16;;;;;;;0.73;0.20;;;;;;;8.49;85.02;97042.50;4983102;28;20374;-70
2021/01/29 07:44:12;;;;;;;0.57;0.20;;;;;;;8.52;84.85;97044.72;4982030;28;20030;-70
2021/01/29 07:46:57;;;;;;;0.10;0.10;;;;;;;8.49;85.25;97061.38;4980232;28;20034;-70
2021/01/29 07:49:24;;;;;;;1.30;0.10;;;;;;;8.47;85.83;97060.78;4982282;28;20492;-70
2021/01/29 07:52:11;;;;;;;0.22;0.17;;;;;;;8.62;84.45;97048.69;4979928;28;20077;-69
2021/01/29 07:54:55;;;;;;;0.10;0.10;;;;;;;8.74;83.53;97054.91;4979673;28;20030;-70
2021/01/29 07:57:37;;;;;;;0.50;0.20;;;;;;;8.64;83.71;97050.09;4994003;28;20035;-70
2021/01/29 08:00:34;;;;;;;0.15;0.08;;;;;;;8.78;82.54;97039.94;4979788;28;20027;-70
2021/01/29 08:03:22;;;;;;;0.30;0.10;;;;;;;8.78;82.20;97070.41;4980942;28;20034;-70
2021/01/29 08:06:04;;;;;;;0.63;0.10;;;;;;;8.65;82.93;97049.06;4979002;28;20066;-70
2021/01/29 08:08:35;;;;;;;0.20;0.17;;;;;;;8.86;81.65;97065.72;4976760;28;20022;-70
2021/01/29 08:11:03;;;;;;;0.95;0.20;;;;;;;8.85;82.10;97069.44;4984883;28;20377;-79
2021/01/29 08:13:31;;;;;;;0.28;0.22;;;;;;;8.88;81.94;97060.88;4993916;28;20018;-79
2021/01/29 08:16:31;;;;;;;0.45;0.10;;;;;;;9.03;80.62;97066.63;4992857;28;20149;-79
2021/01/29 08:19:05;;;;;;;;;;;;;;;8.97;81.68;97071.09;4991827;28;20034;-78
2021/01/29 08:21:54;;;;;;;1.02;0.10;;;;;;;8.96;80.81;97044.34;4996482;28;19957;-79
2021/01/29 08:24:38;;;;;;;0.75;0.10;;;;;;;9.05;81.11;97066.41;4988509;28;20033;-81
2021/01/29 08:27:22;;;;;;;1.75;0.20;;;;;;;9.17;80.55;97064.53;4993123;28;20048;-78
2021/01/29 08:29:53;;;;;;;0.55;0.08;;;;;;;9.29;79.65;97059.09;4983986;28;20037;-79
2021/01/29 08:32:50;;;;;;;0.63;0.20;;;;;;;9.50;78.33;97049.53;4997960;28;20058;-78
2021/01/29 08:35:45;;;;;;;2.08;0.28;;;;;;;9.48;78.74;97060.56;4991038;28;20126;-79
2021/01/29 08:38:27;;;;;;;0.70;0.10;;;;;;;9.61;78.89;97048.66;4979383;28;20035;-81
2021/01/29 08:41:28;;;;;;;0.40;0.00;;;;;;;10.11;77.08;97058.78;5003074;28;20112;-82
2021/01/29 08:44:05;;;;;;;1.17;0.10;;;;;;;10.31;76.78;97055.66;4989733;28;20034;-82
2021/01/29 08:46:56;;;;;;;0.10;0.10;;;;;;;10.28;75.79;97064.25;4987683;28;20029;-80
2021/01/29 08:49:57;;;;;;;1.98;0.20;;;;;;;10.12;76.93;97046.91;5000423;28;20026;-79
2021/01/29 08:52:31;;;;;;;0.55;0.20;;;;;;;9.90;78.24;97083.78;4965305;28;20035;-82
2021/01/29 08:55:10;;;;;;;1.88;0.30;;;;;;;9.68;78.52;97057.44;4995408;28;20033;-76
2021/01/29 08:57:57;;;;;;;0.68;0.10;;;;;;;9.57;78.17;97064.53;5004265;28;20053;-79
2021/01/29 09:00:27;;;;;;;1.40;0.20;;;;;;;9.74;78.53;97090.78;5001587;28;20050;-70
2021/01/29 09:03:07;;;;;;;0.60;0.10;;;;;;;9.81;78.17;97075.25;4986252;28;20396;-70
2021/01/29 09:05:36;;;;;;;0.63;0.22;;;;;;;9.59;78.05;97077.81;4989341;28;20022;-89
2021/01/29 09:08:06;;;;;;;0.17;0.10;;;;;;;9.54;78.52;97080.41;4993552;28;20037;-87
2021/01/29 09:10:50;;;;;;;;;;;;;;;9.85;78.02;97085.34;5007726;28;20030;-81
2021/01/29 09:13:19;;;;;;;0.40;0.10;;;;;;;9.85;77.49;97062.88;4996034;28;19913;-83
2021/01/29 09:15:48;;;;;;;;;;;;;;;9.95;76.91;97081.19;4991910;28;20073;-86
2021/01/29 09:18:25;;;;;;;2.00;0.20;;;;;;;9.83;76.77;97082.06;4987524;28;19917;-74
2021/01/29 09:21:08;;;;;;;1.95;0.30;;;;;;;9.99;75.37;97101.25;4994748;28;20118;-75
2021/01/29 09:24:01;;;;;;;0.85;0.30;;;;;;;10.26;74.55;97077.97;4998381;28;20494;-83
2021/01/29 09:26:57;;;;;;;2.25;0.25;;;;;;;10.28;74.08;97083.97;4994329;28;20054;-83
2021/01/29 09:29:29;;;;;;;0.57;0.20;;;;;;;10.09;74.74;97075.25;5000802;28;20031;-79
2021/01/29 09:32:05;;;;;;;2.65;0.43;;;;;;;9.97;73.98;97081.75;4994726;28;20031;-75
2021/01/29 09:34:38;;;;;;;1.05;0.20;;;;;;;10.16;74.16;97095.88;4993057;28;20053;-74
2021/01/29 09:37:21;;;;;;;2.22;0.20;;;;;;;10.13;72.80;97096.38;4993018;28;20109;-75
2021/01/29 09:39:58;;;;;;;1.23;0.35;;;;;;;10.23;72.44;97097.38;4989953;28;20029;-80
2021/01/29 09:42:32;;;;;;;0.85;0.25;;;;;;;10.37;71.80;97116.81;4989855;28;20053;-74
2021/01/29 09:44:59;;;;;;;3.65;0.35;;;;;;;11.65;66.54;97134.22;4992439;28;20038;-76
2021/01/29 09:47:26;;;;;;;4.00;0.30;;;;;;;12.36;63.72;97098.97;4987212;28;20026;-74
2021/01/29 09:50:00;;;;;;;2.00;0.30;;;;;;;11.83;64.67;97132.00;4985207;28;20497;-74
2021/01/29 09:52:59;;;;;;;3.55;0.38;;;;;;;11.15;65.77;97128.66;4998179;28;20029;-76
2021/01/29 09:55:28;;;;;;;;;;;;;;;10.94;67.61;97138.34;4980561;28;20045;-76
2021/01/29 09:58:12;;;;;;;2.33;0.40;;;;;;;10.85;67.14;97147.94;4998311;28;19922;-77
2021/01/29 10:00:40;;;;;;;3.50;0.30;;;;;;;11.00;68.43;97152.78;4985913;28;20022;-75
2021/01/29 10:03:24;;;;;;;5.30;0.50;;;;;;;10.91;68.54;97152.38;4992234;28;20042;-75
2021/01/29 10:05:51;;;;;;;3.80;0.95;;;;;;;10.73;67.87;97156.13;4993386;28;20030;-75
2021/01/29 10:08:22;;;;;;;4.95;0.80;;;;;;;10.52;68.10;97183.88;4993599;28;20386;-72
2021/01/29 10:10:47;;;;;;;4.10;0.80;;;;;;;10.62;68.63;97165.13;4977637;28;20078;-75
2021/01/29 10:13:22;;;;;;;1.85;0.40;;;;;;;10.71;68.42;97170.97;4985994;28;20457;-77
2021/01/29 10:16:23;;;;;;;4.03;0.50;;;;;;;10.62;68.41;97154.31;4989893;28;20404;-74
2021/01/29 10:19:10;;;;;;;7.85;0.93;;;;;;;10.61;68.01;97160.81;4989246;28;20388;-74
2021/01/29 10:21:45;;;;;;;3.33;0.50;;;;;;;10.66;68.98;97187.94;4979270;28;20101;-71
2021/01/29 10:24:21;;;;;;;6.43;1.38;;;;;;;10.60;68.37;97177.25;4989411;28;20018;-71
2021/01/29 10:27:00;;;;;;;3.88;0.50;;;;;;;10.69;67.85;97179.34;4992147;28;20022;-71
2021/01/29 10:29:27;;;;;;;5.22;0.65;;;;;;;10.71;68.94;97177.19;4988370;28;20031;-71
2021/01/29 10:32:01;;;;;;;4.93;0.50;;;;;;;10.82;67.10;97180.06;4991502;28;20038;-71
2021/01/29 10:34:41;;;;;;;1.63;0.63;;;;;;;10.81;68.02;97163.03;4987692;28;20667;-71
2021/01/29 10:37:31;;;;;;;5.35;0.47;;;;;;;10.74;67.82;97170.47;4994498;28;20439;-80
2021/01/29 10:40:20;;;;;;;3.33;0.50;;;;;;;10.92;65.94;97185.66;4993962;28;20034;-74
2021/01/29 10:42:55;;;;;;;4.03;0.80;;;;;;;11.22;65.24;97174.50;4994419;28;20026;-79
2021/01/29 10:45:32;;;;;;;4.72;0.82;;;;;;;11.09;65.54;97174.84;4993321;28;20018;-79
2021/01/29 10:48:30;;;;;;;4.50;0.68;;;;;;;11.06;66.11;97184.28;4989045;28;20026;-77
2021/01/29 10:51:03;;;;;;;4.40;0.73;;;;;;;11.02;66.02;97191.22;4977697;28;20142;-79
2021/01/29 10:53:30;;;;;;;4.88;0.50;;;;;;;10.85;66.21;97153.38;4989165;28;20401;-75
2021/01/29 10:56:00;;;;;;;9.48;0.80;;;;;;;11.18;66.89;97208.53;4992366;28;20050;-71
2021/01/29 10:58:51;;;;;;;6.85;0.77;;;;;;;11.24;66.40;97195.91;4991636;28;20037;-69
2021/01/29 11:01:39;;;;;;;7.70;0.70;;;;;;;11.23;65.75;97161.78;4976117;28;20373;-67
2021/01/29 11:04:24;;;;;;;4.95;0.73;;;;;;;11.28;65.70;97192.47;4992692;28;20060;-70
2021/01/29 11:07:05;;;;;;;3.20;0.90;;;;;;;11.01;65.78;97176.06;4989501;28;20037;-69
2021/01/29 11:09:41;;;;;;;6.45;1.17;;;;;;;10.91;66.94;97190.25;4980552;28;20041;-68
2021/01/29 11:12:20;;;;;;;4.10;0.93;;;;;;;11.03;66.58;97186.63;4984463;28;20062;-68
2021/01/29 11:14:58;;;;;;;2.58;1.23;;;;;;;11.07;65.37;97188.63;4992720;28;20029;-70
2021/01/29 11:17:33;;;;;;;3.55;0.60;;;;;;;11.21;64.73;97185.56;4986397;28;20137;-68
2021/01/29 11:20:02;;;;;;;1.98;0.70;;;;;;;11.23;64.82;97191.56;4990945;28;20027;-69
2021/01/29 11:22:39;;;;;;;3.45;0.75;;;;;;;10.84;65.50;97199.59;4986390;28;20025;-69
2021/01/29 11:25:09;;;;;;;7.65;0.75;;;;;;;10.95;64.57;97196.81;4984170;28;20048;-69
2021/01/29 11:27:55;;;;;;;4.60;0.70;;;;;;;10.97;65.24;97194.66;4991097;28;20030;-71
2021/01/29 11:30:24;;;;;;;2.28;0.45;;;;;;;10.87;65.07;97209.91;4990473;28;20029;-71
2021/01/29 11:33:03;;;;;;;6.88;1.17;;;;;;;11.04;64.63;97196.41;4986902;28;20432;-71
2021/01/29 11:35:32;;;;;;;6.38;0.90;;;;;;;11.21;64.25;97201.81;4990337;28;20030;-71
2021/01/29 11:37:58;;;;;;;5.15;1.05;;;;;;;11.14;64.36;97191.16;4984588;28;20022;-71
2021/01/29 11:40:35;;;;;;;6.72;0.52;;;;;;;11.16;64.14;97192.56;4989710;28;20026;-68
2021/01/29 11:43:10;;;;;;;6.68;0.80;;;;;;;11.40;65.02;97197.78;4990593;28;20113;-71
2021/01/29 11:45:46;;;;;;;2.22;0.60;;;;;;;11.27;63.80;97193.53;4990491;28;20068;-70
2021/01/29 11:48:11;;;;;;;3.67;0.60;;;;;;;11.23;64.39;97192.38;4990893;28;20054;-70
2021/01/29 11:50:44;;;;;;;5.07;0.80;;;;;;;11.02;64.31;97179.59;4989826;28;20057;-71
2021/01/29 11:53:39;;;;;;;4.18;0.60;;;;;;;11.15;64.53;97184.69;4987573;28;20038;-70
2021/01/29 11:56:35;;;;;;;4.70;0.60;;;;;;;11.24;64.88;97190.47;4990883;28;20523;-71
2021/01/29 11:59:26;;;;;;;7.30;1.13;;;;;;;11.08;64.90;97205.66;4979520;28;20084;-71
2021/01/29 12:01:56;;;;;;;5.30;1.08;;;;;;;11.79;62.41;97201.34;4983353;28;20027;-71
2021/01/29 12:04:48;;;;;;;3.58;0.60;;;;;;;14.37;57.15;97206.81;4988937;28;20034;-67
2021/01/29 12:07:23;;;;;;;5.63;0.73;;;;;;;14.84;54.99;97199.59;4989702;28;20476;-71
2021/01/29 12:10:10;;;;;;;5.18;1.13;;;;;;;13.15;58.41;97196.84;4994214;28;20040;-67
2021/01/29 12:13:16;;;;;;;1.58;0.70;;;;;;;12.04;61.02;97176.47;4977991;28;20404;-70
2021/01/29 12:15:52;;;;;;;7.25;0.80;;;;;;;11.75;62.00;97167.66;4994060;28;20042;-69
2021/01/29 12:18:19;;;;;;;3.47;0.68;;;;;;;11.21;63.29;97177.44;4994297;28;20029;-70
2021/01/29 12:20:45;;;;;;;4.07;0.65;;;;;;;10.96;64.52;97176.81;4978768;28;20042;-69
2021/01/29 12:23:19;;;;;;;4.47;0.93;;;;;;;11.44;64.25;97166.44;4988823;28;20030;-69
2021/01/29 12:26:02;;;;;;;5.80;1.27;;;;;;;11.10;64.42;97174.59;4994135;28;20049;-69
2021/01/29 12:28:34;;;;;;;6.00;0.60;;;;;;;10.54;65.85;97170.94;4991383;28;20042;-70
2021/01/29 12:31:02;;;;;;;4.03;0.70;;;;;;;10.91;66.05;97190.25;4975503;28;20033;-69
2021/01/29 12:33:32;;;;;;;5.63;0.75;;;;;;;10.60;66.17;97183.50;4974565;28;20105;-69